createdAt,value
2018-03-15T00:01:52.772Z,1.40
2018-03-15T00:04:19.778Z,1.40
2018-03-15T00:06:46.677Z,1.30
2018-03-15T00:09:13.695Z,1.30
2018-03-15T00:14:40.792Z,1.20
2018-03-15T00:17:07.053Z,1.20
2018-03-15T00:19:34.802Z,1.30
2018-03-15T00:22:01.096Z,1.30
2018-03-15T00:24:27.295Z,1.30
2018-03-15T00:26:53.569Z,1.40
2018-03-15T00:29:27.879Z,1.30
2018-03-15T00:31:54.103Z,1.40
2018-03-15T00:34:20.407Z,1.40
2018-03-15T00:36:47.460Z,1.60
2018-03-15T00:39:14.440Z,1.60
2018-03-15T00:44:34.641Z,1.60
2018-03-15T00:47:00.887Z,1.50
2018-03-15T00:55:13.136Z,1.50
2018-03-15T00:57:39.451Z,1.70
2018-03-15T01:00:05.744Z,1.70
2018-03-15T01:02:31.949Z,1.70
2018-03-15T01:05:04.353Z,1.70
2018-03-15T01:07:30.661Z,1.70
2018-03-15T01:09:56.937Z,1.70
2018-03-15T01:12:23.463Z,1.70
2018-03-15T01:14:49.735Z,1.70
2018-03-15T01:17:16.230Z,1.60
2018-03-15T01:19:43.284Z,1.60
2018-03-15T01:22:10.295Z,1.60
2018-03-15T01:24:42.713Z,1.60
2018-03-15T01:27:21.843Z,1.70
2018-03-15T01:29:48.140Z,1.60
2018-03-15T01:32:14.378Z,1.60
2018-03-15T01:34:40.648Z,1.60
2018-03-15T01:37:06.897Z,1.50
2018-03-15T01:39:33.154Z,1.60
2018-03-15T01:41:59.378Z,1.50
2018-03-15T01:44:25.628Z,1.50
2018-03-15T01:46:55.152Z,1.40
2018-03-15T01:49:21.561Z,1.50
2018-03-15T01:51:47.847Z,1.50
2018-03-15T01:54:14.368Z,1.50
2018-03-15T01:56:40.578Z,1.50
2018-03-15T01:59:06.827Z,1.40
2018-03-15T02:01:33.197Z,1.50
2018-03-15T02:03:59.416Z,1.40
2018-03-15T02:06:25.629Z,1.40
2018-03-15T02:08:51.931Z,1.40
2018-03-15T02:11:18.181Z,1.70
2018-03-15T02:13:44.446Z,1.60
2018-03-15T02:16:11.433Z,1.50
2018-03-15T02:18:37.691Z,1.50
2018-03-15T02:21:04.090Z,1.50
2018-03-15T02:23:31.091Z,1.40
2018-03-15T02:25:57.337Z,1.40
2018-03-15T02:28:23.548Z,1.40
2018-03-15T02:30:49.778Z,1.40
2018-03-15T02:33:16.825Z,1.30
2018-03-15T02:35:43.779Z,1.40
2018-03-15T02:38:10.793Z,1.40
2018-03-15T02:40:37.418Z,1.40
2018-03-15T02:43:03.672Z,1.40
2018-03-15T02:45:29.932Z,1.30
2018-03-15T02:47:58.283Z,1.30
2018-03-15T02:50:24.542Z,1.30
2018-03-15T02:52:50.865Z,1.30
2018-03-15T02:55:17.155Z,1.30
2018-03-15T02:57:43.481Z,1.20
2018-03-15T03:00:14.046Z,1.20
2018-03-15T03:02:40.385Z,1.10
2018-03-15T03:05:06.650Z,1.10
2018-03-15T03:07:37.615Z,1.10
2018-03-15T03:10:04.614Z,1.00
2018-03-15T03:12:30.911Z,0.90
2018-03-15T03:14:57.883Z,1.00
2018-03-15T03:17:24.919Z,1.00
2018-03-15T03:19:51.165Z,1.00
2018-03-15T03:22:17.620Z,0.90
2018-03-15T03:24:43.842Z,0.90
2018-03-15T03:27:10.108Z,0.90
2018-03-15T03:29:37.270Z,0.80
2018-03-15T03:32:04.374Z,0.80
2018-03-15T03:34:30.612Z,0.80
2018-03-15T03:36:56.840Z,0.80
2018-03-15T03:39:23.070Z,0.80
2018-03-15T03:41:49.406Z,0.80
2018-03-15T03:44:16.410Z,0.90
2018-03-15T03:46:42.638Z,0.90
2018-03-15T03:49:08.874Z,1.00
2018-03-15T03:51:35.123Z,1.00
2018-03-15T03:54:01.386Z,1.00
2018-03-15T03:56:27.666Z,1.00
2018-03-15T03:58:54.854Z,1.00
2018-03-15T04:01:21.119Z,1.00
2018-03-15T04:03:47.418Z,1.00
2018-03-15T04:06:14.442Z,1.20
2018-03-15T04:08:40.694Z,1.20
2018-03-15T04:11:06.947Z,1.10
2018-03-15T04:13:33.917Z,1.10
2018-03-15T04:16:00.233Z,1.10
2018-03-15T04:18:26.568Z,1.20
2018-03-15T04:20:53.047Z,1.10
2018-03-15T04:23:20.118Z,1.10
2018-03-15T04:25:46.521Z,1.10
2018-03-15T04:28:12.818Z,1.20
2018-03-15T04:30:39.064Z,1.20
2018-03-15T04:33:05.416Z,1.10
2018-03-15T04:35:31.735Z,1.10
2018-03-15T04:37:57.984Z,1.00
2018-03-15T04:40:24.246Z,0.90
2018-03-15T04:42:50.518Z,0.70
2018-03-15T04:45:17.114Z,0.70
2018-03-15T04:47:43.397Z,0.80
2018-03-15T04:50:09.610Z,0.90
2018-03-15T04:52:51.530Z,0.90
2018-03-15T04:55:17.765Z,1.00
2018-03-15T04:57:44.035Z,1.20
2018-03-15T05:00:10.391Z,1.00
2018-03-15T05:02:36.759Z,0.80
2018-03-15T05:05:03.760Z,0.50
2018-03-15T05:07:30.035Z,0.50
2018-03-15T05:09:56.297Z,0.30
2018-03-15T05:12:22.653Z,0.10
2018-03-15T05:14:49.674Z,0.00
2018-03-15T05:17:16.150Z,0.00
2018-03-15T05:19:42.527Z,-0.10
2018-03-15T05:22:08.805Z,-0.10
2018-03-15T05:24:35.096Z,-0.20
2018-03-15T05:27:01.378Z,-0.10
2018-03-15T05:29:27.868Z,-0.20
2018-03-15T05:31:54.939Z,-0.20
2018-03-15T05:34:21.510Z,-0.20
2018-03-15T05:36:47.978Z,-0.20
2018-03-15T05:39:19.757Z,-0.10
2018-03-15T05:41:46.036Z,-0.10
2018-03-15T05:44:12.995Z,0.00
2018-03-15T05:46:40.314Z,0.10
2018-03-15T05:49:06.536Z,0.10
2018-03-15T05:51:32.832Z,0.20
2018-03-15T05:53:59.199Z,0.10
2018-03-15T05:56:25.430Z,0.20
2018-03-15T05:58:52.438Z,0.50
2018-03-15T06:01:18.732Z,0.50
2018-03-15T06:03:45.023Z,0.60
2018-03-15T06:06:11.360Z,0.60
2018-03-15T06:08:37.627Z,0.60
2018-03-15T06:11:03.910Z,0.70
2018-03-15T06:13:30.226Z,0.70
2018-03-15T06:15:56.507Z,1.00
2018-03-15T06:18:22.890Z,1.20
2018-03-15T06:20:49.247Z,1.40
2018-03-15T06:23:15.544Z,1.70
2018-03-15T06:25:41.872Z,1.60
2018-03-15T06:28:08.128Z,1.70
2018-03-15T06:30:34.383Z,1.60
2018-03-15T06:33:00.690Z,1.60
2018-03-15T06:35:27.658Z,1.50
2018-03-15T06:37:53.906Z,1.50
2018-03-15T06:40:20.176Z,1.50
2018-03-15T06:42:46.492Z,1.50
2018-03-15T06:45:12.711Z,1.60
2018-03-15T06:47:39.682Z,2.90
2018-03-15T06:50:05.958Z,2.90
2018-03-15T06:52:33.329Z,3.50
2018-03-15T06:54:59.639Z,4.20
2018-03-15T06:57:25.996Z,4.60
2018-03-15T06:59:52.302Z,5.10
2018-03-15T07:02:18.573Z,6.00
2018-03-15T07:04:45.537Z,6.60
2018-03-15T07:07:11.790Z,6.60
2018-03-15T07:09:38.045Z,6.80
2018-03-15T07:12:04.494Z,7.30
2018-03-15T07:14:53.391Z,7.10
2018-03-15T07:17:19.682Z,6.70
2018-03-15T07:19:45.932Z,6.30
2018-03-15T07:22:12.271Z,6.10
2018-03-15T07:24:38.594Z,6.10
2018-03-15T07:27:04.864Z,6.00
2018-03-15T07:29:31.215Z,6.50
2018-03-15T07:31:57.463Z,7.00
2018-03-15T07:34:23.674Z,7.50
2018-03-15T07:36:49.909Z,8.20
2018-03-15T07:39:16.165Z,8.80
2018-03-15T07:41:42.469Z,8.40
2018-03-15T07:44:09.486Z,7.40
2018-03-15T07:46:35.780Z,7.40
2018-03-15T07:49:02.052Z,7.30
2018-03-15T07:51:28.353Z,7.10
2018-03-15T07:53:55.354Z,6.80
2018-03-15T07:56:22.647Z,6.70
2018-03-15T07:58:49.177Z,6.70
2018-03-15T08:01:15.504Z,7.30
2018-03-15T08:03:41.770Z,8.10
2018-03-15T08:06:08.341Z,8.40
2018-03-15T08:08:34.768Z,8.90
2018-03-15T08:11:02.226Z,9.40
2018-03-15T08:13:28.655Z,9.10
2018-03-15T08:15:56.504Z,8.70
2018-03-15T08:18:24.607Z,8.60
2018-03-15T08:20:51.823Z,8.60
2018-03-15T08:23:18.129Z,8.60
2018-03-15T08:25:44.657Z,8.70
2018-03-15T08:28:11.159Z,8.80
2018-03-15T08:30:38.232Z,8.50
2018-03-15T08:33:05.331Z,8.20
2018-03-15T08:35:31.841Z,8.20
2018-03-15T08:37:58.199Z,8.20
2018-03-15T08:40:25.507Z,9.00
2018-03-15T08:42:51.846Z,9.00
2018-03-15T08:45:18.166Z,9.20
2018-03-15T08:47:44.579Z,9.50
2018-03-15T08:50:10.929Z,9.70
2018-03-15T08:52:38.137Z,10.50
2018-03-15T08:55:04.758Z,10.40
2018-03-15T08:57:31.156Z,10.80
2018-03-15T08:59:57.830Z,10.90
2018-03-15T09:02:24.389Z,10.80
2018-03-15T09:04:51.785Z,11.10
2018-03-15T09:07:19.863Z,11.30
2018-03-15T09:09:46.249Z,11.30
2018-03-15T09:12:12.797Z,11.50
2018-03-15T09:14:39.606Z,11.50
2018-03-15T09:17:08.172Z,11.30
2018-03-15T09:19:34.545Z,11.30
2018-03-15T09:22:01.704Z,11.10
2018-03-15T09:24:28.807Z,10.90
2018-03-15T09:26:55.317Z,10.90
2018-03-15T09:29:21.849Z,10.90
2018-03-15T09:31:48.901Z,11.20
2018-03-15T09:34:16.142Z,11.40
2018-03-15T09:36:42.482Z,11.40
2018-03-15T09:39:09.215Z,12.00
2018-03-15T09:41:35.557Z,12.20
2018-03-15T09:44:02.606Z,12.20
2018-03-15T09:46:28.889Z,12.00
2018-03-15T09:48:55.429Z,12.50
2018-03-15T09:51:22.757Z,12.40
2018-03-15T09:53:53.748Z,12.20
2018-03-15T09:56:20.114Z,12.20
2018-03-15T10:01:41.573Z,12.30
2018-03-15T10:06:49.210Z,12.80
2018-03-15T10:09:15.875Z,13.00
2018-03-15T10:11:42.190Z,12.60
2018-03-15T10:14:08.946Z,12.30
2018-03-15T10:16:35.602Z,12.20
2018-03-15T10:19:02.159Z,12.20
2018-03-15T10:21:30.448Z,11.70
2018-03-15T10:23:56.827Z,11.70
2018-03-15T10:26:23.440Z,12.00
2018-03-15T10:28:50.160Z,12.00
2018-03-15T10:31:16.485Z,11.80
2018-03-15T10:33:42.824Z,11.80
2018-03-15T10:36:09.462Z,11.90
2018-03-15T10:38:35.779Z,12.00
2018-03-15T10:41:02.878Z,12.30
2018-03-15T10:43:29.223Z,12.20
2018-03-15T10:45:55.532Z,12.40
2018-03-15T10:48:21.891Z,12.30
2018-03-15T10:50:49.065Z,12.40
2018-03-15T10:53:15.468Z,12.40
2018-03-15T10:55:42.016Z,12.20
2018-03-15T10:58:08.768Z,12.10
2018-03-15T11:00:41.084Z,11.50
2018-03-15T11:03:14.506Z,11.40
2018-03-15T11:05:44.883Z,11.40
2018-03-15T11:08:18.190Z,11.40
2018-03-15T11:10:44.544Z,11.40
2018-03-15T11:13:11.087Z,11.50
2018-03-15T11:15:37.440Z,11.70
2018-03-15T11:18:03.819Z,11.60
2018-03-15T11:20:30.075Z,11.30
2018-03-15T11:22:56.450Z,11.30
2018-03-15T11:25:32.335Z,10.90
2018-03-15T11:27:58.652Z,10.90
2018-03-15T11:30:39.532Z,10.90
2018-03-15T11:33:05.990Z,10.90
2018-03-15T11:35:32.417Z,11.00
2018-03-15T11:37:58.781Z,11.10
2018-03-15T11:40:25.248Z,11.20
2018-03-15T11:42:51.867Z,11.70
2018-03-15T11:45:18.498Z,12.40
2018-03-15T11:47:44.832Z,12.80
2018-03-15T11:50:11.426Z,12.90
2018-03-15T11:52:38.452Z,13.40
2018-03-15T11:55:04.837Z,13.80
2018-03-15T11:57:31.415Z,14.30
2018-03-15T11:59:58.487Z,14.60
2018-03-15T12:02:24.813Z,14.50
2018-03-15T12:04:51.903Z,15.00
2018-03-15T12:07:22.198Z,14.90
2018-03-15T12:09:48.530Z,14.90
2018-03-15T12:12:14.788Z,14.70
2018-03-15T12:14:41.072Z,14.40
2018-03-15T12:17:07.345Z,14.20
2018-03-15T12:19:33.618Z,14.00
2018-03-15T12:21:59.890Z,14.30
2018-03-15T12:24:26.885Z,14.90
2018-03-15T12:26:53.173Z,14.80
2018-03-15T12:29:19.384Z,14.40
2018-03-15T12:31:45.689Z,13.90
2018-03-15T12:34:12.123Z,13.80
2018-03-15T12:36:38.521Z,13.60
2018-03-15T12:39:04.835Z,13.50
2018-03-15T12:41:31.080Z,13.40
2018-03-15T12:43:57.377Z,13.20
2018-03-15T12:46:24.431Z,12.50
2018-03-15T12:48:50.686Z,12.50
2018-03-15T12:51:17.729Z,13.40
2018-03-15T12:53:43.970Z,13.40
2018-03-15T12:56:10.248Z,13.60
2018-03-15T12:58:36.530Z,13.70
2018-03-15T13:01:04.918Z,13.70
2018-03-15T13:03:31.944Z,13.70
2018-03-15T13:05:58.919Z,13.90
2018-03-15T13:08:25.166Z,13.90
2018-03-15T13:10:51.476Z,13.90
2018-03-15T13:13:21.303Z,13.90
2018-03-15T13:15:48.404Z,13.80
2018-03-15T13:18:15.395Z,14.00
2018-03-15T13:20:41.633Z,14.00
2018-03-15T13:23:07.963Z,14.00
2018-03-15T13:25:53.621Z,13.80
2018-03-15T13:28:19.840Z,13.50
2018-03-15T13:30:46.800Z,13.00
2018-03-15T13:33:13.835Z,13.30
2018-03-15T13:35:40.090Z,13.30
2018-03-15T13:38:07.260Z,13.90
2018-03-15T13:40:33.643Z,13.90
2018-03-15T13:42:59.888Z,14.10
2018-03-15T13:45:26.162Z,14.90
2018-03-15T13:47:52.454Z,15.30
2018-03-15T13:50:18.734Z,15.30
2018-03-15T13:52:52.074Z,15.20
2018-03-15T13:55:25.430Z,15.00
2018-03-15T13:57:51.894Z,14.90
2018-03-15T14:00:18.280Z,14.50
2018-03-15T14:02:46.561Z,14.30
2018-03-15T14:05:13.561Z,14.70
2018-03-15T14:07:39.806Z,14.70
2018-03-15T14:10:06.204Z,15.10
2018-03-15T14:12:33.263Z,15.00
2018-03-15T14:15:00.257Z,14.70
2018-03-15T14:17:26.756Z,14.70
2018-03-15T14:19:53.169Z,14.40
2018-03-15T14:22:23.795Z,13.70
2018-03-15T14:24:50.083Z,13.70
2018-03-15T14:27:16.502Z,13.70
2018-03-15T14:29:42.850Z,13.70
2018-03-15T14:32:09.167Z,13.70
2018-03-15T14:34:36.128Z,14.20
2018-03-15T14:37:02.462Z,14.20
2018-03-15T14:39:28.785Z,14.40
2018-03-15T14:41:55.083Z,14.40
2018-03-15T14:44:21.412Z,14.10
2018-03-15T14:46:48.705Z,14.20
2018-03-15T14:49:14.950Z,14.30
2018-03-15T14:51:41.266Z,14.30
2018-03-15T14:54:07.631Z,14.40
2018-03-15T14:56:39.571Z,14.60
2018-03-15T14:59:09.859Z,14.60
2018-03-15T15:01:36.121Z,14.50
2018-03-15T15:04:03.138Z,13.90
2018-03-15T15:06:30.383Z,13.80
2018-03-15T15:08:56.624Z,14.00
2018-03-15T15:11:22.954Z,14.10
2018-03-15T15:13:49.255Z,14.20
2018-03-15T15:16:15.538Z,13.90
2018-03-15T15:18:41.871Z,13.90
2018-03-15T15:21:32.666Z,14.10
2018-03-15T15:23:59.714Z,14.00
2018-03-15T15:26:25.970Z,14.00
2018-03-15T15:28:53.055Z,14.00
2018-03-15T15:31:19.322Z,14.00
2018-03-15T15:33:45.626Z,13.80
2018-03-15T15:36:12.680Z,13.40
2018-03-15T15:38:39.753Z,13.00
2018-03-15T15:41:06.017Z,13.00
2018-03-15T15:43:32.244Z,12.80
2018-03-15T15:46:19.102Z,12.70
2018-03-15T15:48:45.346Z,12.50
2018-03-15T15:51:11.653Z,12.30
2018-03-15T15:53:39.278Z,12.10
2018-03-15T15:56:05.593Z,12.00
2018-03-15T15:58:31.872Z,11.80
2018-03-15T16:00:58.418Z,11.70
2018-03-15T16:03:24.768Z,11.40
2018-03-15T16:05:51.171Z,11.10
2018-03-15T16:08:17.574Z,10.90
2018-03-15T16:10:44.638Z,10.40
2018-03-15T16:13:11.178Z,10.40
2018-03-15T16:15:38.555Z,10.10
2018-03-15T16:18:10.249Z,10.00
2018-03-15T16:20:36.714Z,10.00
2018-03-15T16:23:03.106Z,10.00
2018-03-15T16:25:31.241Z,10.00
2018-03-15T16:27:57.603Z,9.90
2018-03-15T16:30:24.037Z,10.00
2018-03-15T16:32:50.793Z,9.90
2018-03-15T16:35:17.256Z,9.90
2018-03-15T16:37:44.750Z,9.80
2018-03-15T16:40:11.195Z,9.80
2018-03-15T16:42:39.482Z,9.60
2018-03-15T16:45:10.315Z,9.60
2018-03-15T16:47:36.633Z,9.40
2018-03-15T16:50:05.042Z,9.40
2018-03-15T16:52:31.478Z,9.30
2018-03-15T16:54:58.043Z,9.30
2018-03-15T16:57:24.365Z,9.20
2018-03-15T16:59:50.863Z,9.10
2018-03-15T17:02:17.662Z,9.00
2018-03-15T17:04:45.321Z,8.80
2018-03-15T17:07:12.557Z,8.80
2018-03-15T17:09:39.552Z,8.70
2018-03-15T17:12:05.922Z,8.70
2018-03-15T17:14:32.296Z,8.60
2018-03-15T17:17:01.820Z,8.40
2018-03-15T17:19:29.019Z,8.30
2018-03-15T17:21:55.334Z,8.30
2018-03-15T17:24:21.681Z,8.30
2018-03-15T17:26:47.978Z,8.30
2018-03-15T17:29:15.190Z,8.40
2018-03-15T17:31:42.413Z,8.40
2018-03-15T17:34:10.029Z,8.30
2018-03-15T17:36:36.751Z,8.20
2018-03-15T17:39:04.252Z,8.20
2018-03-15T17:41:31.652Z,8.20
2018-03-15T17:43:57.979Z,8.00
2018-03-15T17:46:24.372Z,8.00
2018-03-15T17:48:50.752Z,8.00
2018-03-15T17:51:17.084Z,7.80
2018-03-15T17:53:43.524Z,7.70
2018-03-15T17:56:09.938Z,7.80
2018-03-15T17:58:36.574Z,7.80
2018-03-15T18:01:09.475Z,7.60
2018-03-15T18:03:35.859Z,7.50
2018-03-15T18:06:02.216Z,7.50
2018-03-15T18:08:28.629Z,7.50
2018-03-15T18:10:54.998Z,7.50
2018-03-15T18:13:22.198Z,7.50
2018-03-15T18:15:48.830Z,7.50
2018-03-15T18:18:15.172Z,7.50
2018-03-15T18:20:45.264Z,7.40
2018-03-15T18:23:13.315Z,7.30
2018-03-15T18:25:41.341Z,7.20
2018-03-15T18:28:09.291Z,7.20
2018-03-15T18:30:35.782Z,7.20
2018-03-15T18:33:05.149Z,7.20
2018-03-15T18:35:31.449Z,7.20
2018-03-15T18:37:57.812Z,7.20
2018-03-15T18:40:24.199Z,7.10
2018-03-15T18:42:50.782Z,7.10
2018-03-15T18:45:17.977Z,7.00
2018-03-15T18:47:45.675Z,7.00
2018-03-15T18:50:12.456Z,7.00
2018-03-15T18:52:39.584Z,6.90
2018-03-15T18:55:05.975Z,6.90
2018-03-15T18:57:32.341Z,7.00
2018-03-15T18:59:58.649Z,6.90
2018-03-15T19:02:24.929Z,6.80
2018-03-15T19:04:51.241Z,6.70
2018-03-15T19:07:18.656Z,6.70
2018-03-15T19:09:45.170Z,6.60
2018-03-15T19:12:12.694Z,6.60
2018-03-15T19:14:39.716Z,6.60
2018-03-15T19:17:06.238Z,6.80
2018-03-15T19:19:33.684Z,7.50
2018-03-15T19:22:00.198Z,7.40
2018-03-15T19:24:26.604Z,7.60
2018-03-15T19:26:55.685Z,7.50
2018-03-15T19:29:22.265Z,7.50
2018-03-15T19:31:49.328Z,7.60
2018-03-15T19:34:16.606Z,7.50
2018-03-15T19:36:43.062Z,7.50
2018-03-15T19:39:11.886Z,7.60
2018-03-15T19:41:39.764Z,8.10
2018-03-15T19:44:06.357Z,8.10
2018-03-15T19:46:32.836Z,8.10
2018-03-15T19:48:59.236Z,8.20
2018-03-15T19:51:25.972Z,8.20
2018-03-15T19:53:53.525Z,7.90
2018-03-15T19:56:20.503Z,7.80
2018-03-15T19:58:46.959Z,7.70
2018-03-15T20:01:36.662Z,7.50
2018-03-15T20:04:03.973Z,7.20
2018-03-15T20:06:30.446Z,7.20
2018-03-15T20:08:57.831Z,7.10
2018-03-15T20:11:28.212Z,7.10
2018-03-15T20:13:54.734Z,7.10
2018-03-15T20:16:22.379Z,6.90
2018-03-15T20:18:51.278Z,6.90
2018-03-15T20:21:17.756Z,6.80
2018-03-15T20:23:52.076Z,6.70
2018-03-15T20:26:18.488Z,6.70
2018-03-15T20:28:46.905Z,6.70
2018-03-15T20:31:13.736Z,6.80
2018-03-15T20:33:49.020Z,6.80
2018-03-15T20:36:15.829Z,6.80
2018-03-15T20:38:43.990Z,6.90
2018-03-15T20:41:16.752Z,6.90
2018-03-15T20:43:43.644Z,7.00
2018-03-15T20:46:16.974Z,6.90
2018-03-15T20:48:49.597Z,6.90
2018-03-15T20:51:16.061Z,6.80
2018-03-15T20:53:42.563Z,6.80
2018-03-15T20:56:09.528Z,6.70
2018-03-15T20:58:36.945Z,6.80
2018-03-15T21:01:03.260Z,6.70
2018-03-15T21:03:29.617Z,6.60
2018-03-15T21:05:56.251Z,6.60
2018-03-15T21:08:22.629Z,6.50
2018-03-15T21:10:49.766Z,6.50
2018-03-15T21:13:16.130Z,6.50
2018-03-15T21:15:42.897Z,6.40
2018-03-15T21:18:10.415Z,6.20
2018-03-15T21:20:36.852Z,6.20
2018-03-15T21:23:03.209Z,6.20
2018-03-15T21:25:33.568Z,6.20
2018-03-15T21:28:00.027Z,6.20
2018-03-15T21:30:32.816Z,6.00
2018-03-15T21:32:59.164Z,6.00
2018-03-15T21:35:36.472Z,6.00
2018-03-15T21:38:03.109Z,6.00
2018-03-15T21:40:29.614Z,6.10
2018-03-15T21:42:57.542Z,6.00
2018-03-15T21:45:24.873Z,5.90
2018-03-15T21:47:55.857Z,5.90
2018-03-15T21:50:22.499Z,6.10
2018-03-15T21:52:49.221Z,6.40
2018-03-15T21:55:30.738Z,6.50
2018-03-15T21:58:02.433Z,6.40
2018-03-15T22:00:28.908Z,6.40
2018-03-15T22:02:55.886Z,6.10
2018-03-15T22:05:36.028Z,6.10
2018-03-15T22:08:02.312Z,6.10
2018-03-15T22:10:32.155Z,6.10
2018-03-15T22:12:58.424Z,6.30
2018-03-15T22:15:25.512Z,6.70
2018-03-15T22:17:51.801Z,6.60
2018-03-15T22:20:18.831Z,6.40
2018-03-15T22:22:45.076Z,6.40
2018-03-15T22:25:11.354Z,6.30
2018-03-15T22:27:37.608Z,6.20
2018-03-15T22:30:04.667Z,6.20
2018-03-15T22:32:38.269Z,6.20
2018-03-15T22:35:04.574Z,6.20
2018-03-15T22:37:30.812Z,6.10
2018-03-15T22:39:57.054Z,6.20
2018-03-15T22:42:23.308Z,6.20
2018-03-15T22:44:49.545Z,6.20
2018-03-15T22:47:15.853Z,6.40
2018-03-15T22:49:45.409Z,6.30
2018-03-15T22:52:11.687Z,6.30
2018-03-15T22:54:38.960Z,6.10
2018-03-15T22:57:06.376Z,6.10
2018-03-15T22:59:39.338Z,6.00
2018-03-15T23:02:06.392Z,5.80
2018-03-15T23:04:39.592Z,5.80
2018-03-15T23:07:06.087Z,5.80
2018-03-15T23:12:20.385Z,5.70
2018-03-15T23:14:47.538Z,5.60
2018-03-15T23:17:18.262Z,5.90
2018-03-15T23:19:44.860Z,5.90
2018-03-15T23:22:11.276Z,5.80
2018-03-15T23:24:38.294Z,5.50
2018-03-15T23:27:04.518Z,5.50
2018-03-15T23:29:30.848Z,5.40
2018-03-15T23:31:57.916Z,5.20
2018-03-15T23:34:24.194Z,5.10
2018-03-15T23:36:51.271Z,5.20
2018-03-15T23:39:17.678Z,5.10
2018-03-15T23:41:44.215Z,5.20
2018-03-15T23:44:10.595Z,5.10
2018-03-15T23:46:37.620Z,5.20
2018-03-15T23:49:03.885Z,5.10
2018-03-15T23:51:30.184Z,5.10
2018-03-15T23:53:56.469Z,5.20
2018-03-15T23:56:22.787Z,5.20
2018-03-15T23:58:49.071Z,5.10
